createdAt,value
2022-10-09T00:01:15.133Z,10.00
2022-10-09T00:03:44.885Z,9.98
2022-10-09T00:06:15.593Z,9.96
2022-10-09T00:08:45.054Z,9.93
2022-10-09T00:11:18.200Z,9.89
2022-10-09T00:13:45.569Z,9.86
2022-10-09T00:16:15.193Z,9.83
2022-10-09T00:18:42.068Z,9.82
2022-10-09T00:21:31.219Z,9.81
2022-10-09T00:24:00.283Z,9.79
2022-10-09T00:26:28.542Z,9.76
2022-10-09T00:28:56.118Z,9.72
2022-10-09T00:31:24.808Z,9.70
2022-10-09T00:33:52.978Z,9.67
2022-10-09T00:36:22.539Z,9.65
2022-10-09T00:38:50.082Z,9.62
2022-10-09T00:41:22.611Z,9.60
2022-10-09T00:43:51.409Z,9.58
2022-10-09T00:46:35.011Z,9.58
2022-10-09T00:49:27.511Z,9.59
2022-10-09T00:52:01.369Z,9.61
2022-10-09T00:54:31.384Z,9.62
2022-10-09T00:56:59.044Z,9.62
2022-10-09T00:59:26.250Z,9.61
2022-10-09T01:01:53.993Z,9.61
2022-10-09T01:04:22.276Z,9.60
2022-10-09T01:07:10.722Z,9.59
2022-10-09T01:09:42.623Z,9.56
2022-10-09T01:12:26.726Z,9.54
2022-10-09T01:15:16.108Z,9.52
2022-10-09T01:17:57.545Z,9.51
2022-10-09T01:20:33.360Z,9.48
2022-10-09T01:23:15.585Z,9.44
2022-10-09T01:26:14.193Z,9.41
2022-10-09T01:28:47.082Z,9.37
2022-10-09T01:31:16.368Z,9.34
2022-10-09T01:33:45.850Z,9.32
2022-10-09T01:36:14.459Z,9.30
2022-10-09T01:38:44.598Z,9.28
2022-10-09T01:41:11.414Z,9.25
2022-10-09T01:43:38.063Z,9.24
2022-10-09T01:46:24.803Z,9.21
2022-10-09T01:49:13.738Z,9.18
2022-10-09T01:52:08.187Z,9.13
2022-10-09T01:55:14.694Z,9.10
2022-10-09T01:57:44.743Z,9.06
2022-10-09T02:00:12.037Z,9.03
2022-10-09T02:02:41.571Z,9.01
2022-10-09T02:05:19.714Z,8.98
2022-10-09T02:07:46.112Z,8.94
2022-10-09T02:10:16.864Z,8.92
2022-10-09T02:12:49.354Z,8.89
2022-10-09T02:15:21.471Z,8.86
2022-10-09T02:17:51.306Z,8.83
2022-10-09T02:20:32.153Z,8.80
2022-10-09T02:23:02.549Z,8.77
2022-10-09T02:25:29.677Z,8.75
2022-10-09T02:27:57.870Z,8.73
2022-10-09T02:30:29.278Z,8.70
2022-10-09T02:32:56.887Z,8.68
2022-10-09T02:35:23.341Z,8.66
2022-10-09T02:37:50.521Z,8.63
2022-10-09T02:40:17.251Z,8.61
2022-10-09T02:42:46.434Z,8.59
2022-10-09T02:45:13.623Z,8.56
2022-10-09T02:47:40.029Z,8.55
2022-10-09T02:50:07.590Z,8.53
2022-10-09T02:52:35.425Z,8.50
2022-10-09T02:55:01.882Z,8.48
2022-10-09T02:57:28.862Z,8.47
2022-10-09T02:59:55.708Z,8.44
2022-10-09T03:02:22.512Z,8.42
2022-10-09T03:04:49.396Z,8.40
2022-10-09T03:07:16.156Z,8.39
2022-10-09T03:09:46.071Z,8.37
2022-10-09T03:12:15.599Z,8.35
2022-10-09T03:14:42.760Z,8.32
2022-10-09T03:17:09.476Z,8.30
2022-10-09T03:19:35.935Z,8.27
2022-10-09T03:22:08.712Z,8.24
2022-10-09T03:24:35.226Z,8.22
2022-10-09T03:27:01.701Z,8.19
2022-10-09T03:29:28.184Z,8.17
2022-10-09T03:31:54.924Z,8.15
2022-10-09T03:34:21.778Z,8.14
2022-10-09T03:36:50.415Z,8.14
2022-10-09T03:39:16.867Z,8.13
2022-10-09T03:41:43.292Z,8.12
2022-10-09T03:44:10.741Z,8.12
2022-10-09T03:46:37.199Z,8.11
2022-10-09T03:49:03.686Z,8.10
2022-10-09T03:51:31.929Z,8.09
2022-10-09T03:53:58.367Z,8.08
2022-10-09T03:56:25.457Z,8.08
2022-10-09T03:58:51.960Z,8.07
2022-10-09T04:01:18.458Z,8.07
2022-10-09T04:03:46.434Z,8.06
2022-10-09T04:06:12.962Z,8.06
2022-10-09T04:08:39.343Z,8.06
2022-10-09T04:11:05.796Z,8.06
2022-10-09T04:13:33.531Z,8.07
2022-10-09T04:16:01.034Z,8.07
2022-10-09T04:18:27.517Z,8.06
2022-10-09T04:20:55.967Z,8.06
2022-10-09T04:23:25.032Z,8.06
2022-10-09T04:25:54.344Z,8.06
2022-10-09T04:28:22.884Z,8.05
2022-10-09T04:30:49.431Z,8.05
2022-10-09T04:33:15.905Z,8.06
2022-10-09T04:35:43.657Z,8.06
2022-10-09T04:38:10.995Z,8.07
2022-10-09T04:40:37.815Z,8.07
2022-10-09T04:43:05.042Z,8.08
2022-10-09T04:45:31.707Z,8.08
2022-10-09T04:47:58.923Z,8.08
2022-10-09T04:50:26.715Z,8.09
2022-10-09T04:53:02.272Z,8.09
2022-10-09T04:55:30.156Z,8.09
2022-10-09T04:57:57.273Z,8.10
2022-10-09T05:00:23.893Z,8.09
2022-10-09T05:02:50.920Z,8.08
2022-10-09T05:05:17.772Z,8.08
2022-10-09T05:07:48.955Z,8.07
2022-10-09T05:10:15.716Z,8.05
2022-10-09T05:12:42.579Z,8.05
2022-10-09T05:15:09.630Z,8.06
2022-10-09T05:17:37.080Z,8.08
2022-10-09T05:20:05.845Z,8.10
2022-10-09T05:22:32.352Z,8.14
2022-10-09T05:24:59.836Z,8.19
2022-10-09T05:27:27.439Z,8.25
2022-10-09T05:29:54.958Z,8.33
2022-10-09T05:32:26.566Z,8.43
2022-10-09T05:34:56.165Z,8.54
2022-10-09T05:37:35.557Z,8.68
2022-10-09T05:40:02.681Z,8.82
2022-10-09T05:42:29.092Z,8.96
2022-10-09T05:44:55.567Z,9.09
2022-10-09T05:47:21.997Z,9.23
2022-10-09T05:49:48.774Z,9.38
2022-10-09T05:52:15.238Z,9.60
2022-10-09T05:54:41.676Z,9.78
2022-10-09T05:57:08.915Z,9.95
2022-10-09T05:59:35.403Z,10.14
2022-10-09T06:02:02.358Z,10.30
2022-10-09T06:04:29.231Z,10.45
2022-10-09T06:06:55.728Z,10.60
2022-10-09T06:09:24.989Z,10.76
2022-10-09T06:11:53.870Z,10.91
2022-10-09T06:14:22.564Z,11.04
2022-10-09T06:16:49.781Z,11.18
2022-10-09T06:19:19.072Z,11.30
2022-10-09T06:21:46.656Z,11.43
2022-10-09T06:24:31.908Z,11.56
2022-10-09T06:26:58.526Z,11.70
2022-10-09T06:29:26.716Z,11.81
2022-10-09T06:31:54.121Z,12.00
2022-10-09T06:34:20.800Z,12.35
2022-10-09T06:36:47.658Z,12.69
2022-10-09T06:39:14.889Z,12.89
2022-10-09T06:41:41.798Z,12.95
2022-10-09T06:44:22.494Z,12.94
2022-10-09T06:46:53.924Z,12.93
2022-10-09T06:49:20.726Z,12.92
2022-10-09T06:51:47.510Z,12.88
2022-10-09T06:54:18.316Z,12.84
2022-10-09T06:56:44.996Z,12.84
2022-10-09T06:59:12.318Z,12.82
2022-10-09T07:01:39.082Z,12.79
2022-10-09T07:04:09.967Z,12.74
2022-10-09T07:06:39.226Z,12.69
2022-10-09T07:09:09.997Z,12.67
2022-10-09T07:11:39.150Z,12.68
2022-10-09T07:14:08.587Z,12.70
2022-10-09T07:16:38.230Z,12.74
2022-10-09T07:19:10.620Z,12.77
2022-10-09T07:21:40.268Z,12.81
2022-10-09T07:24:07.250Z,12.83
2022-10-09T07:26:35.918Z,12.87
2022-10-09T07:29:06.600Z,12.91
2022-10-09T07:31:33.154Z,12.97
2022-10-09T07:34:00.381Z,12.98
2022-10-09T07:36:27.892Z,12.94
2022-10-09T07:38:58.290Z,13.02
2022-10-09T07:41:27.917Z,13.12
2022-10-09T07:43:55.693Z,13.12
2022-10-09T07:46:24.474Z,13.09
2022-10-09T07:48:51.805Z,13.02
2022-10-09T07:51:21.463Z,13.03
2022-10-09T07:53:48.505Z,13.08
2022-10-09T07:56:23.653Z,13.07
2022-10-09T07:58:53.878Z,13.12
2022-10-09T08:01:21.642Z,13.15
2022-10-09T08:03:49.046Z,13.27
2022-10-09T08:06:17.541Z,13.40
2022-10-09T08:08:44.522Z,13.55
2022-10-09T08:11:39.971Z,13.68
2022-10-09T08:14:07.154Z,13.81
2022-10-09T08:16:33.553Z,13.97
2022-10-09T08:19:01.996Z,14.11
2022-10-09T08:21:32.587Z,14.19
2022-10-09T08:23:59.626Z,14.16
2022-10-09T08:26:29.775Z,14.20
2022-10-09T08:29:03.026Z,14.25
2022-10-09T08:31:31.306Z,14.37
2022-10-09T08:34:05.082Z,14.56
2022-10-09T08:36:34.209Z,14.73
2022-10-09T08:39:03.691Z,14.78
2022-10-09T08:41:47.053Z,14.75
2022-10-09T08:44:32.514Z,14.64
2022-10-09T08:47:03.471Z,14.63
2022-10-09T08:50:02.460Z,14.68
2022-10-09T08:52:39.393Z,14.72
2022-10-09T08:55:28.618Z,14.68
2022-10-09T08:58:07.265Z,14.60
2022-10-09T09:01:02.640Z,14.50
2022-10-09T09:04:04.934Z,14.44
2022-10-09T09:07:00.583Z,14.46
2022-10-09T09:09:54.913Z,14.48
2022-10-09T09:13:10.533Z,14.51
2022-10-09T09:15:59.491Z,14.49
2022-10-09T09:18:49.303Z,14.62
2022-10-09T09:21:24.395Z,14.84
2022-10-09T09:23:50.878Z,15.02
2022-10-09T09:26:23.012Z,15.14
2022-10-09T09:28:55.135Z,15.05
2022-10-09T09:31:36.702Z,14.82
2022-10-09T09:34:24.604Z,14.80
2022-10-09T09:36:59.897Z,14.91
2022-10-09T09:42:22.576Z,15.02
2022-10-09T09:45:00.426Z,15.12
2022-10-09T09:47:52.586Z,15.17
2022-10-09T09:50:50.535Z,15.27
2022-10-09T09:53:42.669Z,15.26
2022-10-09T09:56:18.961Z,15.23
2022-10-09T09:58:52.543Z,15.23
2022-10-09T10:01:32.347Z,15.28
2022-10-09T10:04:02.085Z,15.45
2022-10-09T10:06:45.075Z,15.58
2022-10-09T10:09:17.735Z,15.62
2022-10-09T10:11:57.208Z,15.72
2022-10-09T10:14:31.827Z,15.77
2022-10-09T10:17:05.147Z,15.75
2022-10-09T10:19:36.101Z,15.71
2022-10-09T10:22:06.717Z,15.56
2022-10-09T10:24:51.169Z,15.47
2022-10-09T10:27:36.732Z,15.37
2022-10-09T10:30:06.986Z,15.32
2022-10-09T10:32:48.470Z,15.38
2022-10-09T10:35:21.382Z,15.41
2022-10-09T10:37:57.500Z,15.38
2022-10-09T10:40:34.613Z,15.38
2022-10-09T10:43:25.164Z,15.34
2022-10-09T10:46:11.331Z,15.30
2022-10-09T10:48:51.433Z,15.25
2022-10-09T10:51:46.703Z,15.33
2022-10-09T10:54:26.211Z,15.49
2022-10-09T10:57:15.907Z,15.71
2022-10-09T11:00:03.451Z,15.90
2022-10-09T11:02:56.913Z,16.06
2022-10-09T11:05:47.281Z,16.19
2022-10-09T11:08:30.328Z,16.28
2022-10-09T11:11:36.661Z,16.08
2022-10-09T11:14:47.049Z,15.80
2022-10-09T11:17:48.482Z,15.65
2022-10-09T11:20:38.121Z,15.56
2022-10-09T11:23:18.416Z,15.54
2022-10-09T11:26:06.800Z,15.55
2022-10-09T11:28:51.488Z,15.58
2022-10-09T11:31:36.260Z,15.60
2022-10-09T11:34:15.282Z,15.70
2022-10-09T11:36:47.095Z,15.67
2022-10-09T11:39:23.350Z,15.59
2022-10-09T11:41:54.326Z,15.68
2022-10-09T11:44:47.309Z,15.62
2022-10-09T11:47:34.424Z,15.46
2022-10-09T11:50:24.364Z,15.42
2022-10-09T11:53:00.207Z,15.34
2022-10-09T11:55:32.600Z,15.27
2022-10-09T11:58:21.685Z,15.25
2022-10-09T12:00:53.332Z,15.22
2022-10-09T12:03:33.317Z,15.18
2022-10-09T12:06:22.038Z,15.19
2022-10-09T12:09:00.170Z,15.23
2022-10-09T12:11:32.266Z,15.30
2022-10-09T12:14:23.998Z,15.37
2022-10-09T12:16:51.684Z,15.42
2022-10-09T12:19:23.252Z,15.56
2022-10-09T12:22:04.185Z,15.81
2022-10-09T12:24:39.165Z,16.07
2022-10-09T12:27:08.189Z,16.29
2022-10-09T12:30:06.930Z,16.46
2022-10-09T12:32:40.185Z,16.51
2022-10-09T12:35:32.389Z,16.56
2022-10-09T12:38:09.174Z,16.41
2022-10-09T12:40:36.671Z,16.11
2022-10-09T12:43:07.628Z,15.81
2022-10-09T12:45:45.258Z,15.61
2022-10-09T12:48:13.773Z,15.46
2022-10-09T12:50:41.570Z,15.33
2022-10-09T12:53:21.012Z,15.21
2022-10-09T12:55:55.428Z,15.10
2022-10-09T12:58:26.289Z,15.04
2022-10-09T13:01:00.657Z,15.00
2022-10-09T13:03:43.463Z,14.97
2022-10-09T13:06:15.370Z,14.94
2022-10-09T13:08:45.741Z,14.91
2022-10-09T13:11:20.365Z,14.92
2022-10-09T13:14:14.013Z,14.93
2022-10-09T13:16:43.463Z,14.93
2022-10-09T13:19:31.333Z,14.95
2022-10-09T13:22:16.585Z,14.97
2022-10-09T13:24:53.003Z,14.98
2022-10-09T13:27:23.794Z,15.06
2022-10-09T13:29:51.296Z,15.18
2022-10-09T13:32:19.377Z,15.29
2022-10-09T13:34:46.986Z,15.27
2022-10-09T13:37:17.285Z,15.26
2022-10-09T13:39:46.434Z,15.36
2022-10-09T13:42:15.795Z,15.50
2022-10-09T13:44:45.391Z,15.62
2022-10-09T13:47:12.307Z,15.73
2022-10-09T13:49:41.563Z,15.81
2022-10-09T13:52:09.237Z,15.89
2022-10-09T13:54:41.406Z,15.95
2022-10-09T13:57:13.186Z,15.97
2022-10-09T13:59:40.232Z,15.99
2022-10-09T14:02:07.586Z,16.00
2022-10-09T14:04:36.471Z,15.98
2022-10-09T14:07:03.432Z,15.97
2022-10-09T14:09:32.653Z,15.98
2022-10-09T14:12:00.429Z,16.00
2022-10-09T14:14:28.450Z,15.99
2022-10-09T14:16:55.774Z,15.99
2022-10-09T14:19:26.991Z,15.98
2022-10-09T14:21:55.678Z,15.97
2022-10-09T14:24:22.711Z,15.98
2022-10-09T14:26:51.728Z,15.95
2022-10-09T14:29:20.838Z,15.90
2022-10-09T14:31:52.058Z,15.89
2022-10-09T14:34:20.541Z,15.86
2022-10-09T14:36:49.286Z,15.80
2022-10-09T14:39:15.931Z,15.74
2022-10-09T14:41:43.484Z,15.72
2022-10-09T14:44:12.702Z,15.69
2022-10-09T14:47:06.096Z,15.67
2022-10-09T14:49:32.742Z,15.66
2022-10-09T14:52:00.239Z,15.61
2022-10-09T14:54:27.937Z,15.57
2022-10-09T14:56:55.568Z,15.52
2022-10-09T14:59:24.927Z,15.46
2022-10-09T15:01:52.707Z,15.38
2022-10-09T15:04:20.485Z,15.30
2022-10-09T15:06:48.891Z,15.24
2022-10-09T15:09:17.411Z,15.17
2022-10-09T15:11:45.306Z,15.12
2022-10-09T15:14:12.971Z,15.07
2022-10-09T15:16:39.793Z,15.03
2022-10-09T15:19:06.590Z,15.01
2022-10-09T15:21:35.501Z,14.96
2022-10-09T15:24:03.939Z,14.87
2022-10-09T15:26:32.825Z,14.78
2022-10-09T15:29:02.395Z,14.70
2022-10-09T15:31:32.166Z,14.63
2022-10-09T15:34:01.812Z,14.60
2022-10-09T15:36:36.238Z,14.60
2022-10-09T15:39:08.299Z,14.60
2022-10-09T15:41:38.169Z,14.56
2022-10-09T15:44:13.420Z,14.48
2022-10-09T15:46:45.463Z,14.39
2022-10-09T15:49:13.205Z,14.30
2022-10-09T15:51:43.513Z,14.22
2022-10-09T15:54:11.343Z,14.12
2022-10-09T15:56:40.180Z,14.03
2022-10-09T15:59:12.505Z,13.93
2022-10-09T16:01:40.394Z,13.82
2022-10-09T16:04:08.870Z,13.72
2022-10-09T16:06:35.533Z,13.61
2022-10-09T16:09:03.882Z,13.51
2022-10-09T16:11:31.494Z,13.41
2022-10-09T16:13:59.293Z,13.31
2022-10-09T16:16:28.318Z,13.20
2022-10-09T16:18:59.568Z,13.09
2022-10-09T16:21:38.726Z,12.98
2022-10-09T16:24:09.918Z,12.87
2022-10-09T16:26:37.174Z,12.77
2022-10-09T16:29:03.781Z,12.67
2022-10-09T16:31:35.411Z,12.57
2022-10-09T16:34:08.806Z,12.48
2022-10-09T16:36:36.514Z,12.38
2022-10-09T16:39:04.694Z,12.28
2022-10-09T16:41:32.049Z,12.17
2022-10-09T16:43:59.677Z,12.05
2022-10-09T16:49:02.291Z,11.85
2022-10-09T16:51:34.411Z,11.76
2022-10-09T16:54:04.608Z,11.65
2022-10-09T16:56:34.921Z,11.56
2022-10-09T16:59:10.734Z,11.48
2022-10-09T17:01:43.165Z,11.40
2022-10-09T17:04:13.426Z,11.32
2022-10-09T17:06:43.423Z,11.24
2022-10-09T17:09:14.027Z,11.18
2022-10-09T17:11:42.604Z,11.12
2022-10-09T17:14:26.012Z,11.04
2022-10-09T17:17:03.646Z,10.95
2022-10-09T17:19:39.769Z,10.88
2022-10-09T17:22:07.772Z,10.83
2022-10-09T17:24:35.175Z,10.78
2022-10-09T17:27:04.420Z,10.73
2022-10-09T17:29:33.422Z,10.67
2022-10-09T17:32:06.689Z,10.63
2022-10-09T17:34:34.223Z,10.57
2022-10-09T17:37:02.365Z,10.52
2022-10-09T17:39:29.418Z,10.47
2022-10-09T17:42:06.078Z,10.42
2022-10-09T17:44:33.704Z,10.37
2022-10-09T17:47:04.265Z,10.32
2022-10-09T17:49:30.909Z,10.28
2022-10-09T17:51:58.744Z,10.23
2022-10-09T17:54:28.553Z,10.18
2022-10-09T17:56:55.122Z,10.12
2022-10-09T17:59:22.411Z,10.08
2022-10-09T18:01:49.262Z,10.04
2022-10-09T18:04:17.605Z,10.00
2022-10-09T18:06:45.161Z,9.96
2022-10-09T18:09:12.146Z,9.91
2022-10-09T18:11:40.541Z,9.86
2022-10-09T18:14:07.148Z,9.82
2022-10-09T18:16:37.355Z,9.77
2022-10-09T18:19:12.494Z,9.72
2022-10-09T18:21:48.855Z,9.67
2022-10-09T18:24:16.182Z,9.62
2022-10-09T18:26:43.963Z,9.57
2022-10-09T18:29:12.800Z,9.52
2022-10-09T18:31:40.176Z,9.46
2022-10-09T18:34:06.668Z,9.41
2022-10-09T18:36:34.306Z,9.36
2022-10-09T18:39:11.700Z,9.32
2022-10-09T18:41:39.832Z,9.28
2022-10-09T18:44:12.061Z,9.24
2022-10-09T18:46:42.317Z,9.20
2022-10-09T18:49:11.298Z,9.16
2022-10-09T18:51:41.615Z,9.12
2022-10-09T18:54:11.398Z,9.08
2022-10-09T18:56:40.054Z,9.04
2022-10-09T18:59:12.518Z,9.00
2022-10-09T19:01:39.671Z,8.96
2022-10-09T19:04:07.241Z,8.93
2022-10-09T19:06:35.932Z,8.89
2022-10-09T19:09:02.861Z,8.86
2022-10-09T19:11:33.328Z,8.82
2022-10-09T19:14:01.938Z,8.77
2022-10-09T19:16:32.188Z,8.74
2022-10-09T19:18:59.340Z,8.70
2022-10-09T19:21:26.124Z,8.66
2022-10-09T19:23:55.229Z,8.63
2022-10-09T19:26:28.656Z,8.60
2022-10-09T19:28:57.336Z,8.56
2022-10-09T19:31:26.848Z,8.51
2022-10-09T19:33:53.649Z,8.47
2022-10-09T19:36:21.701Z,8.43
2022-10-09T19:38:50.569Z,8.40
2022-10-09T19:41:17.417Z,8.36
2022-10-09T19:43:45.919Z,8.33
2022-10-09T19:46:22.125Z,8.29
2022-10-09T19:48:52.492Z,8.26
2022-10-09T19:51:23.237Z,8.23
2022-10-09T19:53:53.579Z,8.19
2022-10-09T19:56:26.026Z,8.16
2022-10-09T19:58:53.830Z,8.13
2022-10-09T20:01:23.873Z,8.10
2022-10-09T20:03:56.927Z,8.07
2022-10-09T20:06:24.262Z,8.04
2022-10-09T20:08:50.847Z,8.01
2022-10-09T20:11:20.447Z,7.98
2022-10-09T20:13:52.074Z,7.96
2022-10-09T20:16:25.660Z,7.93
2022-10-09T20:18:54.124Z,7.90
2022-10-09T20:21:21.106Z,7.87
2022-10-09T20:23:49.166Z,7.84
2022-10-09T20:26:19.281Z,7.82
2022-10-09T20:28:54.012Z,7.79
2022-10-09T20:31:23.805Z,7.77
2022-10-09T20:33:55.986Z,7.75
2022-10-09T20:36:30.660Z,7.73
2022-10-09T20:39:00.342Z,7.72
2022-10-09T20:41:28.669Z,7.70
2022-10-09T20:43:58.098Z,7.68
2022-10-09T20:46:56.065Z,7.65
2022-10-09T20:49:26.576Z,7.62
2022-10-09T20:51:53.630Z,7.60
2022-10-09T20:54:21.074Z,7.57
2022-10-09T20:56:48.553Z,7.54
2022-10-09T20:59:17.651Z,7.51
2022-10-09T21:01:45.429Z,7.48
2022-10-09T21:04:15.235Z,7.46
2022-10-09T21:06:42.472Z,7.44
2022-10-09T21:09:09.019Z,7.42
2022-10-09T21:11:38.521Z,7.41
2022-10-09T21:14:06.701Z,7.39
2022-10-09T21:16:33.164Z,7.38
2022-10-09T21:19:02.313Z,7.37
2022-10-09T21:21:30.473Z,7.35
2022-10-09T21:23:58.658Z,7.34
2022-10-09T21:26:26.861Z,7.33
2022-10-09T21:28:59.388Z,7.32
2022-10-09T21:31:28.988Z,7.30
2022-10-09T21:34:00.978Z,7.28
2022-10-09T21:37:02.243Z,7.26
2022-10-09T21:39:31.467Z,7.25
2022-10-09T21:41:59.381Z,7.24
2022-10-09T21:44:27.005Z,7.23
2022-10-09T21:46:54.838Z,7.20
2022-10-09T21:49:24.781Z,7.19
2022-10-09T21:51:51.582Z,7.17
2022-10-09T21:54:19.799Z,7.16
2022-10-09T21:56:49.154Z,7.14
2022-10-09T21:59:15.927Z,7.13
2022-10-09T22:01:45.463Z,7.14
2022-10-09T22:04:12.098Z,7.12
2022-10-09T22:06:40.488Z,7.10
2022-10-09T22:09:06.933Z,7.10
2022-10-09T22:11:33.912Z,7.10
2022-10-09T22:14:01.432Z,7.10
2022-10-09T22:16:28.313Z,7.09
2022-10-09T22:18:54.725Z,7.08
2022-10-09T22:21:22.378Z,7.06
2022-10-09T22:23:50.852Z,7.05
2022-10-09T22:26:20.460Z,7.03
2022-10-09T22:28:48.570Z,7.01
2022-10-09T22:31:20.323Z,7.00
2022-10-09T22:33:56.078Z,6.98
2022-10-09T22:36:24.577Z,6.98
2022-10-09T22:38:56.010Z,6.98
2022-10-09T22:41:25.626Z,6.96
2022-10-09T22:43:55.307Z,6.95
2022-10-09T22:46:28.736Z,6.95
2022-10-09T22:48:56.004Z,6.95
2022-10-09T22:51:26.620Z,6.95
2022-10-09T22:53:54.777Z,6.94
2022-10-09T22:56:24.074Z,6.93
2022-10-09T22:58:52.629Z,6.92
2022-10-09T23:01:30.883Z,6.92
2022-10-09T23:03:59.393Z,6.90
2022-10-09T23:06:29.261Z,6.89
2022-10-09T23:08:56.298Z,6.89
2022-10-09T23:11:23.188Z,6.88
2022-10-09T23:13:57.460Z,6.88
2022-10-09T23:16:25.786Z,6.88
2022-10-09T23:18:52.866Z,6.86
2022-10-09T23:21:22.950Z,6.85
2022-10-09T23:23:50.906Z,6.84
2022-10-09T23:26:23.522Z,6.83
2022-10-09T23:28:57.119Z,6.81
2022-10-09T23:31:24.889Z,6.78
2022-10-09T23:33:54.474Z,6.76
2022-10-09T23:36:25.326Z,6.73
2022-10-09T23:38:52.863Z,6.71
2022-10-09T23:41:21.385Z,6.69
2022-10-09T23:43:48.187Z,6.68
2022-10-09T23:46:17.475Z,6.66
2022-10-09T23:48:47.045Z,6.63
2022-10-09T23:51:14.814Z,6.60
2022-10-09T23:53:42.858Z,6.58
2022-10-09T23:56:35.100Z,6.56
2022-10-09T23:59:07.458Z,6.53
